createdAt,value
2022-12-19T00:02:21.044Z,100579.63
2022-12-19T00:04:49.741Z,100583.08
2022-12-19T00:07:17.707Z,100586.49
2022-12-19T00:09:45.759Z,100589.65
2022-12-19T00:12:18.996Z,100581.89
2022-12-19T00:14:48.061Z,100585.85
2022-12-19T00:17:15.622Z,100584.83
2022-12-19T00:19:43.815Z,100588.83
2022-12-19T00:22:12.518Z,100586.76
2022-12-19T00:24:41.923Z,100586.62
2022-12-19T00:27:11.599Z,100583.27
2022-12-19T00:29:39.752Z,100583.70
2022-12-19T00:32:07.475Z,100582.20
2022-12-19T00:34:36.086Z,100583.45
2022-12-19T00:37:03.701Z,100580.30
2022-12-19T00:39:31.961Z,100581.40
2022-12-19T00:41:59.907Z,100582.39
2022-12-19T00:44:27.517Z,100582.63
2022-12-19T00:46:55.355Z,100583.77
2022-12-19T00:49:23.985Z,100585.25
2022-12-19T00:51:51.875Z,100588.41
2022-12-19T00:54:19.328Z,100586.79
2022-12-19T00:56:47.271Z,100587.64
2022-12-19T00:59:14.831Z,100583.60
2022-12-19T01:01:45.912Z,100580.19
2022-12-19T01:04:31.244Z,100578.91
2022-12-19T01:07:03.131Z,100573.02
2022-12-19T01:09:33.876Z,100568.67
2022-12-19T01:12:20.460Z,100562.12
2022-12-19T01:14:54.653Z,100559.34
2022-12-19T01:17:38.714Z,100557.67
2022-12-19T01:20:29.025Z,100552.38
2022-12-19T01:23:00.489Z,100545.89
2022-12-19T01:25:28.873Z,100549.27
2022-12-19T01:27:57.130Z,100546.67
2022-12-19T01:30:24.724Z,100541.50
2022-12-19T01:32:53.616Z,100536.20
2022-12-19T01:35:21.293Z,100533.95
2022-12-19T01:37:51.204Z,100534.48
2022-12-19T01:40:18.858Z,100536.29
2022-12-19T01:42:45.639Z,100537.23
2022-12-19T01:45:20.034Z,100539.64
2022-12-19T01:48:32.992Z,100531.00
2022-12-19T01:51:02.684Z,100535.77
2022-12-19T01:53:49.952Z,100533.84
2022-12-19T01:56:18.325Z,100529.70
2022-12-19T01:58:48.833Z,100528.94
2022-12-19T02:01:15.790Z,100527.44
2022-12-19T02:03:42.621Z,100527.38
2022-12-19T02:06:10.649Z,100527.48
2022-12-19T02:08:37.611Z,100525.66
2022-12-19T02:11:05.282Z,100525.72
2022-12-19T02:13:32.270Z,100521.13
2022-12-19T02:16:07.635Z,100519.68
2022-12-19T02:19:16.112Z,100517.62
2022-12-19T02:22:21.393Z,100517.56
2022-12-19T02:25:10.133Z,100515.42
2022-12-19T02:27:51.150Z,100513.42
2022-12-19T02:30:49.184Z,100511.59
2022-12-19T02:33:48.233Z,100510.85
2022-12-19T02:36:18.924Z,100506.73
2022-12-19T02:38:54.001Z,100499.64
2022-12-19T02:41:23.771Z,100496.61
2022-12-19T02:43:58.807Z,100502.77
2022-12-19T02:46:27.527Z,100502.11
2022-12-19T02:48:55.039Z,100499.30
2022-12-19T02:51:21.857Z,100499.83
2022-12-19T02:53:48.822Z,100503.67
2022-12-19T02:56:18.446Z,100505.02
2022-12-19T02:59:24.556Z,100502.27
2022-12-19T03:02:03.195Z,100503.88
2022-12-19T03:04:58.321Z,100504.73
2022-12-19T03:07:36.230Z,100505.24
2022-12-19T03:10:21.850Z,100501.86
2022-12-19T03:12:52.385Z,100504.23
2022-12-19T03:15:20.038Z,100505.56
2022-12-19T03:17:47.204Z,100506.45
2022-12-19T03:20:20.434Z,100509.48
2022-12-19T03:22:47.740Z,100506.80
2022-12-19T03:25:15.277Z,100508.60
2022-12-19T03:27:42.087Z,100511.61
2022-12-19T03:30:10.900Z,100514.15
2022-12-19T03:32:38.495Z,100519.91
2022-12-19T03:35:12.080Z,100520.09
2022-12-19T03:37:39.801Z,100520.42
2022-12-19T03:40:10.305Z,100516.10
2022-12-19T03:42:56.783Z,100515.95
2022-12-19T03:45:31.425Z,100523.54
2022-12-19T03:47:59.768Z,100522.70
2022-12-19T03:50:30.139Z,100526.64
2022-12-19T03:53:03.615Z,100532.31
2022-12-19T03:55:33.264Z,100529.59
2022-12-19T03:58:05.898Z,100528.92
2022-12-19T04:00:34.460Z,100528.05
2022-12-19T04:03:01.888Z,100528.13
2022-12-19T04:05:28.868Z,100525.39
2022-12-19T04:07:58.974Z,100529.89
2022-12-19T04:10:26.546Z,100529.91
2022-12-19T04:12:56.884Z,100532.89
2022-12-19T04:15:33.119Z,100538.06
2022-12-19T04:17:59.984Z,100538.99
2022-12-19T04:20:26.831Z,100537.55
2022-12-19T04:22:58.762Z,100538.49
2022-12-19T04:25:46.852Z,100539.38
2022-12-19T04:28:19.321Z,100540.78
2022-12-19T04:30:46.301Z,100539.14
2022-12-19T04:33:13.178Z,100536.61
2022-12-19T04:35:40.054Z,100537.39
2022-12-19T04:38:07.121Z,100535.92
2022-12-19T04:40:40.966Z,100533.98
2022-12-19T04:43:08.607Z,100536.75
2022-12-19T04:45:35.583Z,100541.10
2022-12-19T04:48:03.473Z,100538.14
2022-12-19T04:50:30.303Z,100539.36
2022-12-19T04:52:57.356Z,100542.48
2022-12-19T04:55:24.231Z,100539.48
2022-12-19T04:57:51.142Z,100543.42
2022-12-19T05:00:18.114Z,100545.98
2022-12-19T05:02:45.763Z,100543.13
2022-12-19T05:05:12.795Z,100539.48
2022-12-19T05:07:40.695Z,100542.41
2022-12-19T05:10:07.966Z,100545.85
2022-12-19T05:12:34.996Z,100542.58
2022-12-19T05:15:01.844Z,100542.89
2022-12-19T05:17:29.124Z,100548.36
2022-12-19T05:19:55.997Z,100550.40
2022-12-19T05:22:22.793Z,100558.38
2022-12-19T05:24:49.594Z,100553.77
2022-12-19T05:27:16.453Z,100544.27
2022-12-19T05:29:43.283Z,100543.45
2022-12-19T05:32:10.250Z,100543.02
2022-12-19T05:34:37.422Z,100542.52
2022-12-19T05:37:04.276Z,100540.94
2022-12-19T05:39:31.087Z,100537.27
2022-12-19T05:41:58.048Z,100533.45
2022-12-19T05:44:25.761Z,100531.34
2022-12-19T05:46:53.289Z,100531.77
2022-12-19T05:49:20.351Z,100537.04
2022-12-19T05:51:48.394Z,100538.95
2022-12-19T05:54:15.311Z,100544.00
2022-12-19T05:56:42.166Z,100548.58
2022-12-19T05:59:09.008Z,100555.39
2022-12-19T06:01:35.939Z,100558.65
2022-12-19T06:04:04.110Z,100559.84
2022-12-19T06:06:31.357Z,100564.20
2022-12-19T06:08:58.679Z,100565.21
2022-12-19T06:11:26.979Z,100569.45
2022-12-19T06:13:53.783Z,100569.65
2022-12-19T06:16:21.336Z,100574.19
2022-12-19T06:18:48.467Z,100573.13
2022-12-19T06:21:17.013Z,100578.83
2022-12-19T06:23:44.285Z,100581.80
2022-12-19T06:26:18.295Z,100577.88
2022-12-19T06:28:46.423Z,100573.46
2022-12-19T06:31:13.446Z,100571.54
2022-12-19T06:33:40.407Z,100567.35
2022-12-19T06:36:10.350Z,100573.42
2022-12-19T06:38:37.407Z,100572.23
2022-12-19T06:41:22.945Z,100574.42
2022-12-19T06:43:53.445Z,100567.89
2022-12-19T06:46:20.913Z,100570.88
2022-12-19T06:48:48.561Z,100569.88
2022-12-19T06:51:15.797Z,100572.02
2022-12-19T06:53:42.719Z,100575.52
2022-12-19T06:56:09.621Z,100580.64
2022-12-19T06:58:36.662Z,100585.38
2022-12-19T07:01:03.488Z,100585.92
2022-12-19T07:03:40.313Z,100588.05
2022-12-19T07:06:07.663Z,100587.77
2022-12-19T07:08:34.463Z,100592.13
2022-12-19T07:11:01.328Z,100590.71
2022-12-19T07:13:28.418Z,100590.25
2022-12-19T07:15:56.690Z,100596.40
2022-12-19T07:18:23.609Z,100592.77
2022-12-19T07:20:50.493Z,100593.73
2022-12-19T07:23:18.919Z,100593.06
2022-12-19T07:25:45.815Z,100595.67
2022-12-19T07:28:12.803Z,100596.48
2022-12-19T07:30:39.643Z,100597.11
2022-12-19T07:33:08.919Z,100593.45
2022-12-19T07:35:37.930Z,100594.29
2022-12-19T07:38:05.643Z,100593.84
2022-12-19T07:40:33.394Z,100596.66
2022-12-19T07:43:04.043Z,100599.99
2022-12-19T07:45:31.207Z,100598.35
2022-12-19T07:48:01.985Z,100596.54
2022-12-19T07:50:29.256Z,100599.41
2022-12-19T07:52:56.932Z,100598.11
2022-12-19T07:55:24.007Z,100594.05
2022-12-19T07:57:51.022Z,100588.23
2022-12-19T08:00:18.174Z,100590.89
2022-12-19T08:02:45.166Z,100590.77
2022-12-19T08:05:12.846Z,100590.85
2022-12-19T08:07:40.863Z,100584.86
2022-12-19T08:10:08.541Z,100582.93
2022-12-19T08:12:35.473Z,100581.16
2022-12-19T08:15:02.325Z,100578.88
2022-12-19T08:17:29.221Z,100584.00
2022-12-19T08:19:56.145Z,100580.95
2022-12-19T08:22:23.395Z,100586.09
2022-12-19T08:24:50.749Z,100584.09
2022-12-19T08:27:17.767Z,100579.23
2022-12-19T08:31:41.069Z,100580.80
2022-12-19T08:34:08.019Z,100575.25
2022-12-19T08:36:34.964Z,100574.36
2022-12-19T08:39:01.904Z,100571.19
2022-12-19T08:41:28.915Z,100568.77
2022-12-19T08:43:56.616Z,100569.66
2022-12-19T08:46:23.724Z,100567.64
2022-12-19T08:48:50.809Z,100565.23
2022-12-19T08:51:18.202Z,100567.10
2022-12-19T08:53:45.833Z,100567.70
2022-12-19T08:56:18.004Z,100563.15
2022-12-19T08:58:45.152Z,100563.98
2022-12-19T09:01:19.442Z,100568.02
2022-12-19T09:04:23.438Z,100564.36
2022-12-19T09:06:34.259Z,100560.25
2022-12-19T09:09:01.296Z,100557.98
2022-12-19T09:11:28.235Z,100555.93
2022-12-19T09:13:58.558Z,100555.45
2022-12-19T09:16:27.070Z,100549.76
2022-12-19T09:18:55.622Z,100547.00
2022-12-19T09:21:23.687Z,100546.09
2022-12-19T09:23:52.449Z,100534.09
2022-12-19T09:26:19.743Z,100531.13
2022-12-19T20:49:48.156Z,99988.98
2022-12-19T20:52:15.883Z,99989.88
2022-12-19T20:54:42.933Z,99986.33
2022-12-19T20:57:10.181Z,99974.84
2022-12-19T20:59:37.049Z,99973.33
2022-12-19T21:02:04.218Z,99969.77
2022-12-19T21:04:31.567Z,99967.41
2022-12-19T21:06:58.885Z,99968.55
2022-12-19T21:09:26.031Z,99970.52
2022-12-19T21:11:53.493Z,99956.22
2022-12-19T21:14:23.408Z,99953.67
2022-12-19T21:16:52.774Z,99948.23
2022-12-19T21:19:20.367Z,99938.83
2022-12-19T21:21:47.409Z,99937.20
2022-12-19T21:24:14.664Z,99942.54
2022-12-19T21:26:41.811Z,99944.97
2022-12-19T21:29:10.084Z,99944.66
2022-12-19T21:31:37.261Z,99940.89
2022-12-19T21:34:04.383Z,99940.14
2022-12-19T21:36:31.553Z,99937.52
2022-12-19T21:39:00.259Z,99938.89
2022-12-19T21:41:27.277Z,99947.39
2022-12-19T21:43:55.253Z,99942.34
2022-12-19T21:46:24.146Z,99934.60
2022-12-19T21:48:53.293Z,99927.07
2022-12-19T21:51:21.318Z,99926.84
2022-12-19T21:53:48.600Z,99934.98
2022-12-19T21:56:25.119Z,99935.07
2022-12-19T21:58:59.743Z,99930.07
2022-12-19T22:01:27.799Z,99934.20
2022-12-19T22:04:02.124Z,99938.59
2022-12-19T22:06:31.396Z,99925.64
2022-12-19T22:09:02.278Z,99921.67
2022-12-19T22:11:29.920Z,99917.48
2022-12-19T22:14:05.426Z,99909.52
2022-12-19T22:16:32.915Z,99923.66
2022-12-19T22:19:00.136Z,99918.34
2022-12-19T22:21:31.377Z,99916.29
2022-12-19T22:24:02.138Z,99908.04
2022-12-19T22:26:31.448Z,99908.83
2022-12-19T22:28:59.667Z,99909.33
2022-12-19T22:31:27.572Z,99905.52
2022-12-19T22:33:59.456Z,99900.88
2022-12-19T22:36:28.903Z,99890.61
2022-12-19T22:38:56.525Z,99888.17
2022-12-19T22:41:23.607Z,99880.76
2022-12-19T22:43:50.621Z,99877.66
2022-12-19T22:46:19.335Z,99868.08
2022-12-19T22:48:49.748Z,99863.09
2022-12-19T22:51:17.222Z,99851.40
2022-12-19T22:53:44.086Z,99856.88
2022-12-19T22:56:13.127Z,99856.41
2022-12-19T22:58:40.962Z,99850.89
2022-12-19T23:01:24.921Z,99835.98
2022-12-19T23:03:53.429Z,99822.63
2022-12-19T23:06:20.492Z,99824.11
2022-12-19T23:08:47.594Z,99820.45
2022-12-19T23:11:17.237Z,99819.89
2022-12-19T23:13:44.541Z,99812.90
2022-12-19T23:16:14.538Z,99808.75
2022-12-19T23:18:41.907Z,99817.50
2022-12-19T23:21:13.722Z,99814.27
2022-12-19T23:23:42.700Z,99803.87
2022-12-19T23:26:15.614Z,99813.14
2022-12-19T23:28:43.938Z,99814.40
2022-12-19T23:31:12.329Z,99801.23
2022-12-19T23:33:39.125Z,99806.13
2022-12-19T23:36:08.741Z,99790.12
2022-12-19T23:38:35.743Z,99790.16
2022-12-19T23:41:07.267Z,99793.77
2022-12-19T23:43:35.672Z,99790.77
2022-12-19T23:46:07.097Z,99775.79
2022-12-19T23:48:33.991Z,99775.23
2022-12-19T23:51:04.749Z,99772.16
2022-12-19T23:53:32.077Z,99772.85
2022-12-19T23:55:59.276Z,99754.80
2022-12-19T23:58:26.123Z,99757.45
